sensor_id;sensor_type;location;lat;lon;timestamp;temperature;humidity
1570;DHT22;778;50.120;8.698;2023-05-07T00:00:28;17.00;99.90
1570;DHT22;778;50.120;8.698;2023-05-07T00:02:57;16.90;99.90
1570;DHT22;778;50.120;8.698;2023-05-07T00:05:25;16.90;99.90
1570;DHT22;778;50.120;8.698;2023-05-07T00:07:54;17.00;99.90
1570;DHT22;778;50.120;8.698;2023-05-07T00:10:26;17.00;99.90
1570;DHT22;778;50.120;8.698;2023-05-07T00:12:54;17.00;99.90
1570;DHT22;778;50.120;8.698;2023-05-07T00:15:22;17.00;99.90
1570;DHT22;778;50.120;8.698;2023-05-07T00:17:52;17.00;99.90
1570;DHT22;778;50.120;8.698;2023-05-07T00:20:21;17.00;99.90
1570;DHT22;778;50.120;8.698;2023-05-07T00:22:49;17.00;99.90
1570;DHT22;778;50.120;8.698;2023-05-07T00:25:18;17.00;99.90
1570;DHT22;778;50.120;8.698;2023-05-07T00:27:47;17.00;99.90
1570;DHT22;778;50.120;8.698;2023-05-07T00:30:15;16.90;99.90
1570;DHT22;778;50.120;8.698;2023-05-07T00:32:44;16.90;99.90
1570;DHT22;778;50.120;8.698;2023-05-07T00:35:14;17.00;99.90
1570;DHT22;778;50.120;8.698;2023-05-07T00:37:42;17.00;99.90
1570;DHT22;778;50.120;8.698;2023-05-07T00:40:11;17.00;99.90
1570;DHT22;778;50.120;8.698;2023-05-07T00:42:40;17.00;99.90
1570;DHT22;778;50.120;8.698;2023-05-07T00:45:09;16.90;99.90
1570;DHT22;778;50.120;8.698;2023-05-07T00:47:37;16.90;99.90
1570;DHT22;778;50.120;8.698;2023-05-07T00:50:07;16.90;99.90
1570;DHT22;778;50.120;8.698;2023-05-07T00:52:39;16.80;99.90
1570;DHT22;778;50.120;8.698;2023-05-07T00:55:09;16.90;99.90
1570;DHT22;778;50.120;8.698;2023-05-07T00:57:40;16.90;99.90
1570;DHT22;778;50.120;8.698;2023-05-07T01:00:09;16.90;99.90
1570;DHT22;778;50.120;8.698;2023-05-07T01:02:40;17.00;99.90
1570;DHT22;778;50.120;8.698;2023-05-07T01:05:11;17.10;99.90
1570;DHT22;778;50.120;8.698;2023-05-07T01:07:42;17.10;99.90
1570;DHT22;778;50.120;8.698;2023-05-07T01:10:11;17.20;99.90
1570;DHT22;778;50.120;8.698;2023-05-07T01:12:40;17.10;99.90
1570;DHT22;778;50.120;8.698;2023-05-07T01:15:10;17.10;99.90
1570;DHT22;778;50.120;8.698;2023-05-07T01:17:40;17.20;99.90
1570;DHT22;778;50.120;8.698;2023-05-07T01:20:22;17.20;99.90
1570;DHT22;778;50.120;8.698;2023-05-07T01:22:55;17.10;99.90
1570;DHT22;778;50.120;8.698;2023-05-07T01:25:24;17.10;99.90
1570;DHT22;778;50.120;8.698;2023-05-07T01:27:57;17.00;99.90
1570;DHT22;778;50.120;8.698;2023-05-07T01:30:29;16.90;99.90
1570;DHT22;778;50.120;8.698;2023-05-07T01:33:03;16.90;99.90
1570;DHT22;778;50.120;8.698;2023-05-07T01:35:37;16.90;99.90
1570;DHT22;778;50.120;8.698;2023-05-07T01:38:08;16.80;99.90
1570;DHT22;778;50.120;8.698;2023-05-07T01:40:37;16.90;99.90
1570;DHT22;778;50.120;8.698;2023-05-07T01:43:06;16.80;99.90
1570;DHT22;778;50.120;8.698;2023-05-07T01:45:36;16.80;99.90
1570;DHT22;778;50.120;8.698;2023-05-07T01:48:07;16.70;99.90
1570;DHT22;778;50.120;8.698;2023-05-07T01:50:37;16.70;99.90
1570;DHT22;778;50.120;8.698;2023-05-07T01:53:08;16.60;99.90
1570;DHT22;778;50.120;8.698;2023-05-07T01:55:36;16.60;99.90
1570;DHT22;778;50.120;8.698;2023-05-07T01:58:05;16.70;99.90
1570;DHT22;778;50.120;8.698;2023-05-07T02:00:33;16.60;99.90
1570;DHT22;778;50.120;8.698;2023-05-07T02:03:02;16.60;99.90
1570;DHT22;778;50.120;8.698;2023-05-07T02:05:44;16.50;99.90
1570;DHT22;778;50.120;8.698;2023-05-07T02:08:22;16.50;99.90
1570;DHT22;778;50.120;8.698;2023-05-07T02:10:50;16.40;99.90
1570;DHT22;778;50.120;8.698;2023-05-07T02:13:20;16.50;99.90
1570;DHT22;778;50.120;8.698;2023-05-07T02:15:51;16.50;99.90
1570;DHT22;778;50.120;8.698;2023-05-07T02:18:21;16.50;99.90
1570;DHT22;778;50.120;8.698;2023-05-07T02:20:49;16.50;99.90
1570;DHT22;778;50.120;8.698;2023-05-07T02:23:18;16.40;99.90
1570;DHT22;778;50.120;8.698;2023-05-07T02:25:48;16.40;99.90
1570;DHT22;778;50.120;8.698;2023-05-07T02:28:17;16.40;99.90
1570;DHT22;778;50.120;8.698;2023-05-07T02:30:59;16.40;99.90
1570;DHT22;778;50.120;8.698;2023-05-07T02:33:28;16.50;99.90
1570;DHT22;778;50.120;8.698;2023-05-07T02:36:05;16.50;99.90
1570;DHT22;778;50.120;8.698;2023-05-07T02:38:36;16.50;99.90
1570;DHT22;778;50.120;8.698;2023-05-07T02:41:07;16.50;99.90
1570;DHT22;778;50.120;8.698;2023-05-07T02:43:36;16.50;99.90
1570;DHT22;778;50.120;8.698;2023-05-07T02:46:06;16.60;99.90
1570;DHT22;778;50.120;8.698;2023-05-07T02:48:40;16.60;99.90
1570;DHT22;778;50.120;8.698;2023-05-07T02:51:08;16.50;99.90
1570;DHT22;778;50.120;8.698;2023-05-07T02:53:39;16.40;99.90
1570;DHT22;778;50.120;8.698;2023-05-07T02:56:09;16.50;99.90
1570;DHT22;778;50.120;8.698;2023-05-07T02:58:37;16.50;99.90
1570;DHT22;778;50.120;8.698;2023-05-07T03:01:08;16.40;99.90
1570;DHT22;778;50.120;8.698;2023-05-07T03:03:58;16.40;99.90
1570;DHT22;778;50.120;8.698;2023-05-07T03:06:26;16.40;99.90
1570;DHT22;778;50.120;8.698;2023-05-07T03:08:55;16.30;99.90
1570;DHT22;778;50.120;8.698;2023-05-07T03:11:25;16.30;99.90
1570;DHT22;778;50.120;8.698;2023-05-07T03:13:53;16.30;99.90
1570;DHT22;778;50.120;8.698;2023-05-07T03:16:22;16.30;99.90
1570;DHT22;778;50.120;8.698;2023-05-07T03:18:51;16.30;99.90
1570;DHT22;778;50.120;8.698;2023-05-07T03:21:19;16.30;99.90
1570;DHT22;778;50.120;8.698;2023-05-07T03:23:47;16.30;99.90
1570;DHT22;778;50.120;8.698;2023-05-07T03:26:16;16.30;99.90
1570;DHT22;778;50.120;8.698;2023-05-07T03:28:46;16.30;99.90
1570;DHT22;778;50.120;8.698;2023-05-07T03:31:16;16.40;99.90
1570;DHT22;778;50.120;8.698;2023-05-07T03:33:53;16.40;99.90
1570;DHT22;778;50.120;8.698;2023-05-07T03:36:23;16.40;99.90
1570;DHT22;778;50.120;8.698;2023-05-07T03:38:54;16.30;99.90
1570;DHT22;778;50.120;8.698;2023-05-07T03:41:25;16.30;99.90
1570;DHT22;778;50.120;8.698;2023-05-07T03:43:55;16.30;99.90
1570;DHT22;778;50.120;8.698;2023-05-07T03:46:24;16.20;99.90
1570;DHT22;778;50.120;8.698;2023-05-07T03:48:54;16.10;99.90
1570;DHT22;778;50.120;8.698;2023-05-07T03:51:23;16.10;99.90
1570;DHT22;778;50.120;8.698;2023-05-07T03:53:51;16.00;99.90
1570;DHT22;778;50.120;8.698;2023-05-07T03:56:21;16.00;99.90
1570;DHT22;778;50.120;8.698;2023-05-07T03:58:56;16.00;99.90
1570;DHT22;778;50.120;8.698;2023-05-07T04:01:24;16.00;99.90
1570;DHT22;778;50.120;8.698;2023-05-07T04:03:53;16.00;99.90
1570;DHT22;778;50.120;8.698;2023-05-07T04:06:23;15.90;99.90
1570;DHT22;778;50.120;8.698;2023-05-07T04:08:52;15.90;99.90
1570;DHT22;778;50.120;8.698;2023-05-07T04:11:21;15.80;99.90
1570;DHT22;778;50.120;8.698;2023-05-07T04:13:49;15.90;99.90
1570;DHT22;778;50.120;8.698;2023-05-07T04:16:22;15.90;99.90
1570;DHT22;778;50.120;8.698;2023-05-07T04:18:51;15.90;99.90
1570;DHT22;778;50.120;8.698;2023-05-07T04:21:20;15.90;99.90
1570;DHT22;778;50.120;8.698;2023-05-07T04:23:50;15.90;99.90
1570;DHT22;778;50.120;8.698;2023-05-07T04:26:19;16.00;99.90
1570;DHT22;778;50.120;8.698;2023-05-07T04:28:48;15.90;99.90
1570;DHT22;778;50.120;8.698;2023-05-07T04:31:17;15.90;99.90
1570;DHT22;778;50.120;8.698;2023-05-07T04:33:51;15.90;99.90
1570;DHT22;778;50.120;8.698;2023-05-07T04:36:19;16.00;99.90
1570;DHT22;778;50.120;8.698;2023-05-07T04:38:55;16.00;99.90
1570;DHT22;778;50.120;8.698;2023-05-07T04:41:23;16.00;99.90
1570;DHT22;778;50.120;8.698;2023-05-07T04:43:52;16.00;99.90
1570;DHT22;778;50.120;8.698;2023-05-07T04:46:23;15.90;99.90
1570;DHT22;778;50.120;8.698;2023-05-07T04:48:55;16.00;99.90
1570;DHT22;778;50.120;8.698;2023-05-07T04:51:23;15.90;99.90
1570;DHT22;778;50.120;8.698;2023-05-07T04:53:52;15.90;99.90
1570;DHT22;778;50.120;8.698;2023-05-07T04:56:21;15.90;99.90
1570;DHT22;778;50.120;8.698;2023-05-07T04:58:50;15.90;99.90
1570;DHT22;778;50.120;8.698;2023-05-07T05:01:20;15.80;99.90
1570;DHT22;778;50.120;8.698;2023-05-07T05:03:49;15.80;99.90
1570;DHT22;778;50.120;8.698;2023-05-07T05:06:20;15.80;99.90
1570;DHT22;778;50.120;8.698;2023-05-07T05:08:50;15.80;99.90
1570;DHT22;778;50.120;8.698;2023-05-07T05:11:18;15.80;99.90
1570;DHT22;778;50.120;8.698;2023-05-07T05:13:47;15.80;99.90
1570;DHT22;778;50.120;8.698;2023-05-07T05:16:19;15.80;99.90
1570;DHT22;778;50.120;8.698;2023-05-07T05:18:48;15.90;99.90
1570;DHT22;778;50.120;8.698;2023-05-07T05:21:20;16.00;99.90
1570;DHT22;778;50.120;8.698;2023-05-07T05:23:52;16.00;99.90
1570;DHT22;778;50.120;8.698;2023-05-07T05:26:24;16.10;99.90
1570;DHT22;778;50.120;8.698;2023-05-07T05:28:52;16.20;99.90
1570;DHT22;778;50.120;8.698;2023-05-07T05:31:23;16.20;99.90
1570;DHT22;778;50.120;8.698;2023-05-07T05:33:52;16.20;99.90
1570;DHT22;778;50.120;8.698;2023-05-07T05:36:22;16.30;99.90
1570;DHT22;778;50.120;8.698;2023-05-07T05:38:53;16.30;99.90
1570;DHT22;778;50.120;8.698;2023-05-07T05:41:22;16.30;99.90
1570;DHT22;778;50.120;8.698;2023-05-07T05:43:51;16.40;99.90
1570;DHT22;778;50.120;8.698;2023-05-07T05:46:19;16.40;99.90
1570;DHT22;778;50.120;8.698;2023-05-07T05:48:50;16.40;99.90
1570;DHT22;778;50.120;8.698;2023-05-07T05:51:20;16.40;99.90
1570;DHT22;778;50.120;8.698;2023-05-07T05:53:50;16.40;99.90
1570;DHT22;778;50.120;8.698;2023-05-07T05:56:19;16.40;99.90
1570;DHT22;778;50.120;8.698;2023-05-07T05:58:48;16.40;99.90
1570;DHT22;778;50.120;8.698;2023-05-07T06:01:17;16.40;99.90
1570;DHT22;778;50.120;8.698;2023-05-07T06:03:48;16.50;99.90
1570;DHT22;778;50.120;8.698;2023-05-07T06:06:16;16.50;99.90
1570;DHT22;778;50.120;8.698;2023-05-07T06:08:47;16.60;99.90
1570;DHT22;778;50.120;8.698;2023-05-07T06:11:20;16.60;99.90
1570;DHT22;778;50.120;8.698;2023-05-07T06:13:49;16.60;99.90
1570;DHT22;778;50.120;8.698;2023-05-07T06:16:18;16.80;99.90
1570;DHT22;778;50.120;8.698;2023-05-07T06:18:47;16.80;99.90
1570;DHT22;778;50.120;8.698;2023-05-07T06:21:16;16.90;99.90
1570;DHT22;778;50.120;8.698;2023-05-07T06:23:44;16.90;99.90
1570;DHT22;778;50.120;8.698;2023-05-07T06:26:14;16.90;99.90
1570;DHT22;778;50.120;8.698;2023-05-07T06:28:46;17.00;99.90
1570;DHT22;778;50.120;8.698;2023-05-07T06:31:17;17.10;99.90
1570;DHT22;778;50.120;8.698;2023-05-07T06:33:58;17.20;99.90
1570;DHT22;778;50.120;8.698;2023-05-07T06:36:32;17.10;99.90
1570;DHT22;778;50.120;8.698;2023-05-07T06:39:05;17.20;99.90
1570;DHT22;778;50.120;8.698;2023-05-07T06:41:36;17.30;99.90
1570;DHT22;778;50.120;8.698;2023-05-07T06:44:14;17.50;99.90
1570;DHT22;778;50.120;8.698;2023-05-07T06:46:47;17.50;99.90
1570;DHT22;778;50.120;8.698;2023-05-07T06:49:15;17.60;99.90
1570;DHT22;778;50.120;8.698;2023-05-07T06:51:44;17.80;99.90
1570;DHT22;778;50.120;8.698;2023-05-07T06:54:13;17.90;99.90
1570;DHT22;778;50.120;8.698;2023-05-07T06:56:44;18.00;99.90
1570;DHT22;778;50.120;8.698;2023-05-07T06:59:12;18.10;99.90
1570;DHT22;778;50.120;8.698;2023-05-07T07:01:41;18.00;99.90
1570;DHT22;778;50.120;8.698;2023-05-07T07:04:11;18.00;99.90
1570;DHT22;778;50.120;8.698;2023-05-07T07:06:41;18.30;99.90
1570;DHT22;778;50.120;8.698;2023-05-07T07:09:12;18.60;99.90
1570;DHT22;778;50.120;8.698;2023-05-07T07:11:41;19.00;99.90
1570;DHT22;778;50.120;8.698;2023-05-07T07:14:11;19.40;99.90
1570;DHT22;778;50.120;8.698;2023-05-07T07:16:45;19.80;99.90
1570;DHT22;778;50.120;8.698;2023-05-07T07:19:15;19.80;99.90
1570;DHT22;778;50.120;8.698;2023-05-07T07:21:46;19.80;99.90
1570;DHT22;778;50.120;8.698;2023-05-07T07:24:15;19.70;99.90
1570;DHT22;778;50.120;8.698;2023-05-07T07:26:51;19.50;99.90
1570;DHT22;778;50.120;8.698;2023-05-07T07:29:22;19.60;99.90
1570;DHT22;778;50.120;8.698;2023-05-07T07:31:53;19.40;99.90
1570;DHT22;778;50.120;8.698;2023-05-07T07:34:22;19.60;99.90
1570;DHT22;778;50.120;8.698;2023-05-07T07:36:51;19.40;99.90
1570;DHT22;778;50.120;8.698;2023-05-07T07:39:20;19.30;99.90
1570;DHT22;778;50.120;8.698;2023-05-07T07:41:51;19.40;99.90
1570;DHT22;778;50.120;8.698;2023-05-07T07:44:22;19.60;99.90
1570;DHT22;778;50.120;8.698;2023-05-07T07:46:57;19.70;99.90
1570;DHT22;778;50.120;8.698;2023-05-07T07:49:26;20.10;99.90
1570;DHT22;778;50.120;8.698;2023-05-07T07:51:58;20.60;99.90
1570;DHT22;778;50.120;8.698;2023-05-07T07:54:28;20.60;99.90
1570;DHT22;778;50.120;8.698;2023-05-07T07:56:57;20.70;99.90
1570;DHT22;778;50.120;8.698;2023-05-07T07:59:28;20.50;99.90
1570;DHT22;778;50.120;8.698;2023-05-07T08:01:57;20.20;99.90
1570;DHT22;778;50.120;8.698;2023-05-07T08:04:27;20.20;99.90
1570;DHT22;778;50.120;8.698;2023-05-07T08:07:00;20.00;99.90
1570;DHT22;778;50.120;8.698;2023-05-07T08:09:31;19.90;99.90
1570;DHT22;778;50.120;8.698;2023-05-07T08:12:01;19.90;99.90
1570;DHT22;778;50.120;8.698;2023-05-07T08:14:34;19.60;99.90
1570;DHT22;778;50.120;8.698;2023-05-07T08:17:04;19.40;99.90
1570;DHT22;778;50.120;8.698;2023-05-07T08:19:34;19.50;99.90
1570;DHT22;778;50.120;8.698;2023-05-07T08:22:04;19.70;99.90
1570;DHT22;778;50.120;8.698;2023-05-07T08:24:33;19.80;99.90
1570;DHT22;778;50.120;8.698;2023-05-07T08:27:01;19.60;99.90
1570;DHT22;778;50.120;8.698;2023-05-07T08:29:30;19.60;99.90
1570;DHT22;778;50.120;8.698;2023-05-07T08:32:01;19.60;99.90
1570;DHT22;778;50.120;8.698;2023-05-07T08:34:30;19.40;99.90
1570;DHT22;778;50.120;8.698;2023-05-07T08:37:01;19.50;99.90
1570;DHT22;778;50.120;8.698;2023-05-07T08:39:31;19.30;99.90
1570;DHT22;778;50.120;8.698;2023-05-07T08:42:00;19.30;99.90
1570;DHT22;778;50.120;8.698;2023-05-07T08:44:34;19.30;99.90
1570;DHT22;778;50.120;8.698;2023-05-07T08:47:06;19.30;99.90
1570;DHT22;778;50.120;8.698;2023-05-07T08:49:36;19.40;99.90
1570;DHT22;778;50.120;8.698;2023-05-07T08:52:06;19.30;99.90
1570;DHT22;778;50.120;8.698;2023-05-07T08:54:37;19.40;99.90
1570;DHT22;778;50.120;8.698;2023-05-07T08:57:08;19.50;99.90
1570;DHT22;778;50.120;8.698;2023-05-07T08:59:36;19.70;99.90
1570;DHT22;778;50.120;8.698;2023-05-07T09:02:08;19.80;99.90
1570;DHT22;778;50.120;8.698;2023-05-07T09:04:38;19.90;99.90
1570;DHT22;778;50.120;8.698;2023-05-07T09:07:07;20.00;99.90
1570;DHT22;778;50.120;8.698;2023-05-07T09:09:40;20.20;99.90
1570;DHT22;778;50.120;8.698;2023-05-07T09:12:09;20.30;99.90
1570;DHT22;778;50.120;8.698;2023-05-07T09:14:38;20.20;99.90
1570;DHT22;778;50.120;8.698;2023-05-07T09:17:08;20.40;99.90
1570;DHT22;778;50.120;8.698;2023-05-07T09:19:36;20.60;99.90
1570;DHT22;778;50.120;8.698;2023-05-07T09:22:07;20.70;99.90
1570;DHT22;778;50.120;8.698;2023-05-07T09:24:49;21.00;99.90
1570;DHT22;778;50.120;8.698;2023-05-07T09:27:21;21.40;99.90
1570;DHT22;778;50.120;8.698;2023-05-07T09:29:50;21.60;99.90
1570;DHT22;778;50.120;8.698;2023-05-07T09:32:20;21.80;99.90
1570;DHT22;778;50.120;8.698;2023-05-07T09:34:49;21.70;99.90
1570;DHT22;778;50.120;8.698;2023-05-07T09:37:21;21.60;99.90
1570;DHT22;778;50.120;8.698;2023-05-07T09:39:50;21.60;99.90
1570;DHT22;778;50.120;8.698;2023-05-07T09:42:23;21.60;99.90
1570;DHT22;778;50.120;8.698;2023-05-07T09:44:56;21.90;99.90
1570;DHT22;778;50.120;8.698;2023-05-07T09:47:32;22.20;99.90
1570;DHT22;778;50.120;8.698;2023-05-07T09:50:03;22.00;99.90
1570;DHT22;778;50.120;8.698;2023-05-07T09:52:34;22.30;99.90
1570;DHT22;778;50.120;8.698;2023-05-07T09:55:06;22.60;99.90
1570;DHT22;778;50.120;8.698;2023-05-07T09:57:36;22.70;99.90
1570;DHT22;778;50.120;8.698;2023-05-07T10:00:08;23.10;99.90
1570;DHT22;778;50.120;8.698;2023-05-07T10:02:48;22.60;99.90
1570;DHT22;778;50.120;8.698;2023-05-07T10:05:26;23.20;99.90
1570;DHT22;778;50.120;8.698;2023-05-07T10:07:57;23.60;99.90
1570;DHT22;778;50.120;8.698;2023-05-07T10:10:32;23.90;99.90
1570;DHT22;778;50.120;8.698;2023-05-07T10:13:02;23.80;99.00
1570;DHT22;778;50.120;8.698;2023-05-07T10:15:34;24.20;97.70
1570;DHT22;778;50.120;8.698;2023-05-07T10:18:06;24.20;97.20
1570;DHT22;778;50.120;8.698;2023-05-07T10:20:37;24.20;96.10
1570;DHT22;778;50.120;8.698;2023-05-07T10:23:13;24.40;96.30
1570;DHT22;778;50.120;8.698;2023-05-07T10:25:46;24.30;95.70
1570;DHT22;778;50.120;8.698;2023-05-07T10:28:21;24.00;96.30
1570;DHT22;778;50.120;8.698;2023-05-07T10:31:01;24.00;96.10
1570;DHT22;778;50.120;8.698;2023-05-07T10:33:44;24.20;96.30
1570;DHT22;778;50.120;8.698;2023-05-07T10:36:14;24.10;95.80
1570;DHT22;778;50.120;8.698;2023-05-07T10:38:43;24.00;96.30
1570;DHT22;778;50.120;8.698;2023-05-07T10:41:13;23.90;95.90
1570;DHT22;778;50.120;8.698;2023-05-07T10:43:45;24.00;96.40
1570;DHT22;778;50.120;8.698;2023-05-07T10:46:22;24.20;94.80
1570;DHT22;778;50.120;8.698;2023-05-07T10:49:09;24.10;95.60
1570;DHT22;778;50.120;8.698;2023-05-07T10:52:16;24.20;96.70
1570;DHT22;778;50.120;8.698;2023-05-07T10:55:21;24.20;95.30
1570;DHT22;778;50.120;8.698;2023-05-07T10:58:25;24.50;94.60
1570;DHT22;778;50.120;8.698;2023-05-07T11:01:49;24.10;94.90
1570;DHT22;778;50.120;8.698;2023-05-07T11:04:26;24.00;96.30
1570;DHT22;778;50.120;8.698;2023-05-07T11:07:27;23.90;95.40
1570;DHT22;778;50.120;8.698;2023-05-07T11:10:03;23.60;95.60
1570;DHT22;778;50.120;8.698;2023-05-07T11:12:56;23.20;95.70
1570;DHT22;778;50.120;8.698;2023-05-07T11:15:36;23.00;95.50
1570;DHT22;778;50.120;8.698;2023-05-07T11:18:46;23.20;96.40
1570;DHT22;778;50.120;8.698;2023-05-07T11:21:37;23.60;95.40
1570;DHT22;778;50.120;8.698;2023-05-07T11:24:27;23.70;93.90
1570;DHT22;778;50.120;8.698;2023-05-07T11:27:03;24.00;93.10
1570;DHT22;778;50.120;8.698;2023-05-07T11:29:32;24.20;93.40
1570;DHT22;778;50.120;8.698;2023-05-07T11:32:08;24.30;91.40
1570;DHT22;778;50.120;8.698;2023-05-07T11:34:42;24.40;91.80
1570;DHT22;778;50.120;8.698;2023-05-07T11:37:16;24.50;90.70
1570;DHT22;778;50.120;8.698;2023-05-07T11:40:03;24.50;90.40
1570;DHT22;778;50.120;8.698;2023-05-07T11:42:34;24.60;88.20
1570;DHT22;778;50.120;8.698;2023-05-07T11:45:05;24.50;87.50
1570;DHT22;778;50.120;8.698;2023-05-07T11:47:35;24.50;87.90
1570;DHT22;778;50.120;8.698;2023-05-07T11:50:07;24.70;87.80
1570;DHT22;778;50.120;8.698;2023-05-07T11:52:38;24.40;88.00
1570;DHT22;778;50.120;8.698;2023-05-07T11:55:08;24.60;86.10
1570;DHT22;778;50.120;8.698;2023-05-07T11:57:37;24.60;84.70
1570;DHT22;778;50.120;8.698;2023-05-07T12:00:07;24.60;84.30
1570;DHT22;778;50.120;8.698;2023-05-07T12:02:39;24.20;83.80
1570;DHT22;778;50.120;8.698;2023-05-07T12:05:09;24.20;84.80
1570;DHT22;778;50.120;8.698;2023-05-07T12:07:39;24.20;83.00
1570;DHT22;778;50.120;8.698;2023-05-07T12:10:08;23.90;83.30
1570;DHT22;778;50.120;8.698;2023-05-07T12:12:39;23.80;82.40
1570;DHT22;778;50.120;8.698;2023-05-07T12:15:09;23.90;83.70
1570;DHT22;778;50.120;8.698;2023-05-07T12:17:38;24.00;81.50
1570;DHT22;778;50.120;8.698;2023-05-07T12:20:08;23.80;78.50
1570;DHT22;778;50.120;8.698;2023-05-07T12:22:39;23.80;79.60
1570;DHT22;778;50.120;8.698;2023-05-07T12:25:09;23.90;80.00
1570;DHT22;778;50.120;8.698;2023-05-07T12:27:37;24.00;78.40
1570;DHT22;778;50.120;8.698;2023-05-07T12:30:10;24.00;79.40
1570;DHT22;778;50.120;8.698;2023-05-07T12:32:40;24.10;78.50
1570;DHT22;778;50.120;8.698;2023-05-07T12:35:08;24.30;79.10
1570;DHT22;778;50.120;8.698;2023-05-07T12:37:39;24.40;78.20
1570;DHT22;778;50.120;8.698;2023-05-07T12:40:09;24.50;79.20
1570;DHT22;778;50.120;8.698;2023-05-07T12:42:40;24.50;81.60
1570;DHT22;778;50.120;8.698;2023-05-07T12:45:10;24.30;79.60
1570;DHT22;778;50.120;8.698;2023-05-07T12:47:39;24.50;80.00
1570;DHT22;778;50.120;8.698;2023-05-07T12:50:08;24.30;82.00
1570;DHT22;778;50.120;8.698;2023-05-07T12:52:36;24.00;78.20
1570;DHT22;778;50.120;8.698;2023-05-07T12:55:08;24.00;78.00
1570;DHT22;778;50.120;8.698;2023-05-07T12:57:38;24.20;79.20
1570;DHT22;778;50.120;8.698;2023-05-07T13:00:08;24.30;81.00
1570;DHT22;778;50.120;8.698;2023-05-07T13:02:38;23.90;76.50
1570;DHT22;778;50.120;8.698;2023-05-07T13:05:08;23.70;78.10
1570;DHT22;778;50.120;8.698;2023-05-07T13:07:39;24.00;79.90
1570;DHT22;778;50.120;8.698;2023-05-07T13:10:09;24.00;80.40
1570;DHT22;778;50.120;8.698;2023-05-07T13:12:37;24.30;77.70
1570;DHT22;778;50.120;8.698;2023-05-07T13:15:07;24.30;77.90
1570;DHT22;778;50.120;8.698;2023-05-07T13:17:36;24.30;76.60
1570;DHT22;778;50.120;8.698;2023-05-07T13:20:05;24.20;77.80
1570;DHT22;778;50.120;8.698;2023-05-07T13:22:35;24.40;79.50
1570;DHT22;778;50.120;8.698;2023-05-07T13:25:06;24.30;77.80
1570;DHT22;778;50.120;8.698;2023-05-07T13:27:35;24.40;76.30
1570;DHT22;778;50.120;8.698;2023-05-07T13:30:05;24.40;81.30
1570;DHT22;778;50.120;8.698;2023-05-07T13:32:34;24.50;84.50
1570;DHT22;778;50.120;8.698;2023-05-07T13:35:03;24.40;84.80
1570;DHT22;778;50.120;8.698;2023-05-07T13:37:32;24.40;84.10
1570;DHT22;778;50.120;8.698;2023-05-07T13:40:02;24.40;85.00
1570;DHT22;778;50.120;8.698;2023-05-07T13:42:33;24.10;83.10
1570;DHT22;778;50.120;8.698;2023-05-07T13:45:01;24.10;83.40
1570;DHT22;778;50.120;8.698;2023-05-07T13:47:30;24.20;83.20
1570;DHT22;778;50.120;8.698;2023-05-07T13:49:59;24.10;82.30
1570;DHT22;778;50.120;8.698;2023-05-07T13:52:27;24.20;80.70
1570;DHT22;778;50.120;8.698;2023-05-07T13:54:56;24.20;83.40
1570;DHT22;778;50.120;8.698;2023-05-07T13:57:25;24.20;80.50
1570;DHT22;778;50.120;8.698;2023-05-07T13:59:55;24.20;81.10
1570;DHT22;778;50.120;8.698;2023-05-07T14:02:23;24.20;81.90
1570;DHT22;778;50.120;8.698;2023-05-07T14:04:52;24.30;80.90
1570;DHT22;778;50.120;8.698;2023-05-07T14:07:21;24.30;78.90
1570;DHT22;778;50.120;8.698;2023-05-07T14:09:49;24.40;80.60
1570;DHT22;778;50.120;8.698;2023-05-07T14:12:18;24.20;79.00
1570;DHT22;778;50.120;8.698;2023-05-07T14:14:46;24.40;79.10
1570;DHT22;778;50.120;8.698;2023-05-07T14:17:18;24.20;80.60
1570;DHT22;778;50.120;8.698;2023-05-07T14:19:47;24.10;78.70
1570;DHT22;778;50.120;8.698;2023-05-07T14:22:15;24.00;78.60
1570;DHT22;778;50.120;8.698;2023-05-07T14:24:43;24.00;79.20
1570;DHT22;778;50.120;8.698;2023-05-07T14:27:18;24.00;80.40
1570;DHT22;778;50.120;8.698;2023-05-07T14:29:47;23.80;81.80
1570;DHT22;778;50.120;8.698;2023-05-07T14:32:19;23.80;82.60
1570;DHT22;778;50.120;8.698;2023-05-07T14:34:48;23.80;82.30
1570;DHT22;778;50.120;8.698;2023-05-07T14:37:17;23.80;84.20
1570;DHT22;778;50.120;8.698;2023-05-07T14:39:47;23.70;82.10
1570;DHT22;778;50.120;8.698;2023-05-07T14:42:16;23.80;83.60
1570;DHT22;778;50.120;8.698;2023-05-07T14:44:46;23.70;82.40
1570;DHT22;778;50.120;8.698;2023-05-07T14:47:15;23.70;83.70
1570;DHT22;778;50.120;8.698;2023-05-07T14:49:47;23.70;83.00
1570;DHT22;778;50.120;8.698;2023-05-07T14:52:15;23.70;82.80
1570;DHT22;778;50.120;8.698;2023-05-07T14:54:44;23.70;84.20
1570;DHT22;778;50.120;8.698;2023-05-07T14:57:13;23.80;83.10
1570;DHT22;778;50.120;8.698;2023-05-07T14:59:43;23.70;83.90
1570;DHT22;778;50.120;8.698;2023-05-07T15:02:12;23.70;84.10
1570;DHT22;778;50.120;8.698;2023-05-07T15:04:41;23.60;84.60
1570;DHT22;778;50.120;8.698;2023-05-07T15:07:14;23.50;83.80
1570;DHT22;778;50.120;8.698;2023-05-07T15:09:43;23.60;83.30
1570;DHT22;778;50.120;8.698;2023-05-07T15:12:12;23.50;85.60
1570;DHT22;778;50.120;8.698;2023-05-07T15:14:41;23.50;83.20
1570;DHT22;778;50.120;8.698;2023-05-07T15:17:11;23.50;84.70
1570;DHT22;778;50.120;8.698;2023-05-07T15:19:39;23.50;87.00
1570;DHT22;778;50.120;8.698;2023-05-07T15:22:07;23.50;83.20
1570;DHT22;778;50.120;8.698;2023-05-07T15:24:37;23.40;84.00
1570;DHT22;778;50.120;8.698;2023-05-07T15:27:06;23.30;84.60
1570;DHT22;778;50.120;8.698;2023-05-07T15:29:34;23.30;82.00
1570;DHT22;778;50.120;8.698;2023-05-07T15:32:03;23.30;82.50
1570;DHT22;778;50.120;8.698;2023-05-07T15:34:32;23.20;83.90
1570;DHT22;778;50.120;8.698;2023-05-07T15:37:00;23.20;84.00
1570;DHT22;778;50.120;8.698;2023-05-07T15:39:30;23.10;82.40
1570;DHT22;778;50.120;8.698;2023-05-07T15:41:59;23.10;83.00
1570;DHT22;778;50.120;8.698;2023-05-07T15:44:29;23.00;82.70
1570;DHT22;778;50.120;8.698;2023-05-07T15:47:01;23.00;82.40
1570;DHT22;778;50.120;8.698;2023-05-07T15:49:29;23.00;82.80
1570;DHT22;778;50.120;8.698;2023-05-07T15:51:58;22.90;84.80
1570;DHT22;778;50.120;8.698;2023-05-07T15:54:26;22.90;83.60
1570;DHT22;778;50.120;8.698;2023-05-07T15:56:55;22.90;83.60
1570;DHT22;778;50.120;8.698;2023-05-07T15:59:24;22.90;84.00
1570;DHT22;778;50.120;8.698;2023-05-07T16:01:53;22.90;84.00
1570;DHT22;778;50.120;8.698;2023-05-07T16:04:22;22.80;83.40
1570;DHT22;778;50.120;8.698;2023-05-07T16:06:50;22.80;83.50
1570;DHT22;778;50.120;8.698;2023-05-07T16:09:19;22.80;84.50
1570;DHT22;778;50.120;8.698;2023-05-07T16:11:48;22.80;84.50
1570;DHT22;778;50.120;8.698;2023-05-07T16:14:16;22.90;85.30
1570;DHT22;778;50.120;8.698;2023-05-07T16:16:46;22.90;86.70
1570;DHT22;778;50.120;8.698;2023-05-07T16:19:14;22.80;84.90
1570;DHT22;778;50.120;8.698;2023-05-07T16:21:43;22.80;86.50
1570;DHT22;778;50.120;8.698;2023-05-07T16:24:11;22.70;86.40
1570;DHT22;778;50.120;8.698;2023-05-07T16:26:40;22.60;87.50
1570;DHT22;778;50.120;8.698;2023-05-07T16:29:08;22.60;87.40
1570;DHT22;778;50.120;8.698;2023-05-07T16:31:36;22.60;87.50
1570;DHT22;778;50.120;8.698;2023-05-07T16:34:06;22.60;87.70
1570;DHT22;778;50.120;8.698;2023-05-07T16:36:35;22.60;88.00
1570;DHT22;778;50.120;8.698;2023-05-07T16:39:03;22.60;87.00
1570;DHT22;778;50.120;8.698;2023-05-07T16:41:32;22.60;88.10